sensor_id;sensor_type;location;lat;lon;timestamp;P1;durP1;ratioP1;P2;durP2;ratioP2
10471;SDS011;5283;48.876;8.962;2023-12-29T00:00:00;2.20;;;2.00;;
10471;SDS011;5283;48.876;8.962;2023-12-29T00:02:27;2.40;;;2.20;;
10471;SDS011;5283;48.876;8.962;2023-12-29T00:04:54;2.60;;;2.23;;
10471;SDS011;5283;48.876;8.962;2023-12-29T00:07:20;2.20;;;2.00;;
10471;SDS011;5283;48.876;8.962;2023-12-29T00:09:47;3.57;;;2.30;;
10471;SDS011;5283;48.876;8.962;2023-12-29T00:12:14;3.50;;;2.50;;
10471;SDS011;5283;48.876;8.962;2023-12-29T00:14:40;2.70;;;2.50;;
10471;SDS011;5283;48.876;8.962;2023-12-29T00:17:07;2.20;;;2.10;;
10471;SDS011;5283;48.876;8.962;2023-12-29T00:19:34;3.70;;;2.40;;
10471;SDS011;5283;48.876;8.962;2023-12-29T00:22:01;3.10;;;2.80;;
10471;SDS011;5283;48.876;8.962;2023-12-29T00:24:29;2.83;;;2.17;;
10471;SDS011;5283;48.876;8.962;2023-12-29T00:26:59;2.20;;;2.00;;
10471;SDS011;5283;48.876;8.962;2023-12-29T00:29:26;2.87;;;2.60;;
10471;SDS011;5283;48.876;8.962;2023-12-29T00:31:58;2.53;;;2.33;;
10471;SDS011;5283;48.876;8.962;2023-12-29T00:34:26;2.83;;;2.60;;
10471;SDS011;5283;48.876;8.962;2023-12-29T00:36:53;2.83;;;2.63;;
10471;SDS011;5283;48.876;8.962;2023-12-29T00:39:19;3.03;;;2.83;;
10471;SDS011;5283;48.876;8.962;2023-12-29T00:41:54;3.40;;;3.10;;
10471;SDS011;5283;48.876;8.962;2023-12-29T00:44:24;3.97;;;2.60;;
10471;SDS011;5283;48.876;8.962;2023-12-29T00:46:51;3.20;;;2.90;;
10471;SDS011;5283;48.876;8.962;2023-12-29T00:49:19;3.10;;;2.90;;
10471;SDS011;5283;48.876;8.962;2023-12-29T00:51:47;3.40;;;3.10;;
10471;SDS011;5283;48.876;8.962;2023-12-29T00:54:14;3.23;;;2.93;;
10471;SDS011;5283;48.876;8.962;2023-12-29T00:56:41;5.50;;;2.90;;
10471;SDS011;5283;48.876;8.962;2023-12-29T00:59:08;3.73;;;2.70;;
10471;SDS011;5283;48.876;8.962;2023-12-29T01:01:35;3.20;;;2.90;;
10471;SDS011;5283;48.876;8.962;2023-12-29T01:04:02;3.07;;;2.73;;
10471;SDS011;5283;48.876;8.962;2023-12-29T01:06:29;3.30;;;3.00;;
10471;SDS011;5283;48.876;8.962;2023-12-29T01:08:56;3.30;;;3.00;;
10471;SDS011;5283;48.876;8.962;2023-12-29T01:11:22;3.67;;;3.20;;
10471;SDS011;5283;48.876;8.962;2023-12-29T01:13:50;4.77;;;3.10;;
10471;SDS011;5283;48.876;8.962;2023-12-29T01:16:16;3.47;;;3.17;;
10471;SDS011;5283;48.876;8.962;2023-12-29T01:18:43;3.50;;;3.13;;
10471;SDS011;5283;48.876;8.962;2023-12-29T01:21:10;4.30;;;3.40;;
10471;SDS011;5283;48.876;8.962;2023-12-29T01:23:37;3.93;;;3.07;;
10471;SDS011;5283;48.876;8.962;2023-12-29T01:26:03;3.67;;;3.33;;
10471;SDS011;5283;48.876;8.962;2023-12-29T01:28:30;4.30;;;3.07;;
10471;SDS011;5283;48.876;8.962;2023-12-29T01:30:58;3.33;;;2.93;;
10471;SDS011;5283;48.876;8.962;2023-12-29T01:33:24;5.03;;;3.00;;
10471;SDS011;5283;48.876;8.962;2023-12-29T01:35:51;3.83;;;3.53;;
10471;SDS011;5283;48.876;8.962;2023-12-29T01:38:18;4.60;;;2.80;;
10471;SDS011;5283;48.876;8.962;2023-12-29T01:40:45;3.47;;;3.17;;
10471;SDS011;5283;48.876;8.962;2023-12-29T01:43:12;3.63;;;3.33;;
10471;SDS011;5283;48.876;8.962;2023-12-29T01:45:39;3.77;;;3.20;;
10471;SDS011;5283;48.876;8.962;2023-12-29T01:48:08;3.00;;;2.73;;
10471;SDS011;5283;48.876;8.962;2023-12-29T01:50:35;3.33;;;3.03;;
10471;SDS011;5283;48.876;8.962;2023-12-29T01:53:02;2.97;;;2.77;;
10471;SDS011;5283;48.876;8.962;2023-12-29T01:55:30;3.20;;;3.00;;
10471;SDS011;5283;48.876;8.962;2023-12-29T01:57:59;3.20;;;2.90;;
10471;SDS011;5283;48.876;8.962;2023-12-29T02:00:28;3.67;;;2.90;;
10471;SDS011;5283;48.876;8.962;2023-12-29T02:02:55;3.53;;;2.77;;
10471;SDS011;5283;48.876;8.962;2023-12-29T02:05:21;3.40;;;3.10;;
10471;SDS011;5283;48.876;8.962;2023-12-29T02:07:51;3.03;;;2.70;;
10471;SDS011;5283;48.876;8.962;2023-12-29T02:10:19;2.90;;;2.50;;
10471;SDS011;5283;48.876;8.962;2023-12-29T02:12:47;3.77;;;2.90;;
10471;SDS011;5283;48.876;8.962;2023-12-29T02:15:15;3.63;;;3.30;;
10471;SDS011;5283;48.876;8.962;2023-12-29T02:17:47;2.70;;;2.50;;
10471;SDS011;5283;48.876;8.962;2023-12-29T02:20:27;3.00;;;2.80;;
10471;SDS011;5283;48.876;8.962;2023-12-29T02:22:55;2.97;;;2.77;;
10471;SDS011;5283;48.876;8.962;2023-12-29T02:25:22;3.00;;;2.77;;
10471;SDS011;5283;48.876;8.962;2023-12-29T02:27:52;2.80;;;2.60;;
10471;SDS011;5283;48.876;8.962;2023-12-29T02:30:25;2.73;;;2.40;;
10471;SDS011;5283;48.876;8.962;2023-12-29T02:33:01;3.13;;;2.80;;
10471;SDS011;5283;48.876;8.962;2023-12-29T02:35:37;3.27;;;2.73;;
10471;SDS011;5283;48.876;8.962;2023-12-29T02:38:06;2.93;;;2.63;;
10471;SDS011;5283;48.876;8.962;2023-12-29T02:40:32;2.90;;;2.70;;
10471;SDS011;5283;48.876;8.962;2023-12-29T02:42:59;3.37;;;2.73;;
10471;SDS011;5283;48.876;8.962;2023-12-29T02:45:26;3.20;;;2.87;;
10471;SDS011;5283;48.876;8.962;2023-12-29T02:47:53;3.30;;;3.00;;
10471;SDS011;5283;48.876;8.962;2023-12-29T02:50:20;3.13;;;2.77;;
10471;SDS011;5283;48.876;8.962;2023-12-29T02:52:46;4.87;;;3.00;;
10471;SDS011;5283;48.876;8.962;2023-12-29T02:55:13;3.80;;;2.93;;
10471;SDS011;5283;48.876;8.962;2023-12-29T02:57:41;3.47;;;3.17;;
10471;SDS011;5283;48.876;8.962;2023-12-29T03:00:07;3.40;;;3.10;;
10471;SDS011;5283;48.876;8.962;2023-12-29T03:02:34;3.33;;;3.03;;
10471;SDS011;5283;48.876;8.962;2023-12-29T03:05:01;3.20;;;2.90;;
10471;SDS011;5283;48.876;8.962;2023-12-29T03:07:28;3.57;;;3.10;;
10471;SDS011;5283;48.876;8.962;2023-12-29T03:09:55;5.03;;;3.87;;
10471;SDS011;5283;48.876;8.962;2023-12-29T03:12:22;3.27;;;2.97;;
10471;SDS011;5283;48.876;8.962;2023-12-29T03:14:49;3.73;;;2.90;;
10471;SDS011;5283;48.876;8.962;2023-12-29T03:17:16;3.73;;;3.10;;
10471;SDS011;5283;48.876;8.962;2023-12-29T03:19:42;3.33;;;3.03;;
10471;SDS011;5283;48.876;8.962;2023-12-29T03:22:09;3.80;;;3.40;;
10471;SDS011;5283;48.876;8.962;2023-12-29T03:24:36;4.57;;;3.10;;
10471;SDS011;5283;48.876;8.962;2023-12-29T03:27:03;4.43;;;3.30;;
10471;SDS011;5283;48.876;8.962;2023-12-29T03:29:30;3.33;;;3.03;;
10471;SDS011;5283;48.876;8.962;2023-12-29T03:31:57;3.50;;;3.20;;
10471;SDS011;5283;48.876;8.962;2023-12-29T03:34:23;3.63;;;3.13;;
10471;SDS011;5283;48.876;8.962;2023-12-29T03:36:50;3.30;;;3.00;;
10471;SDS011;5283;48.876;8.962;2023-12-29T03:39:17;5.87;;;3.20;;
10471;SDS011;5283;48.876;8.962;2023-12-29T03:41:43;3.63;;;3.33;;
10471;SDS011;5283;48.876;8.962;2023-12-29T03:44:10;3.30;;;3.00;;
10471;SDS011;5283;48.876;8.962;2023-12-29T03:46:37;3.87;;;3.37;;
10471;SDS011;5283;48.876;8.962;2023-12-29T03:49:04;3.30;;;3.00;;
10471;SDS011;5283;48.876;8.962;2023-12-29T03:51:30;3.83;;;3.40;;
10471;SDS011;5283;48.876;8.962;2023-12-29T03:53:57;4.07;;;3.67;;
10471;SDS011;5283;48.876;8.962;2023-12-29T03:56:27;3.77;;;3.33;;
10471;SDS011;5283;48.876;8.962;2023-12-29T03:58:53;3.90;;;3.50;;
10471;SDS011;5283;48.876;8.962;2023-12-29T04:01:20;3.63;;;3.33;;
10471;SDS011;5283;48.876;8.962;2023-12-29T04:03:47;3.67;;;3.30;;
10471;SDS011;5283;48.876;8.962;2023-12-29T04:06:14;4.10;;;3.80;;
10471;SDS011;5283;48.876;8.962;2023-12-29T04:08:40;4.13;;;3.73;;
10471;SDS011;5283;48.876;8.962;2023-12-29T04:11:07;3.93;;;3.63;;
10471;SDS011;5283;48.876;8.962;2023-12-29T04:13:34;4.27;;;3.87;;
10471;SDS011;5283;48.876;8.962;2023-12-29T04:16:01;4.63;;;3.90;;
10471;SDS011;5283;48.876;8.962;2023-12-29T04:18:28;4.00;;;3.60;;
10471;SDS011;5283;48.876;8.962;2023-12-29T04:20:55;4.23;;;3.83;;
10471;SDS011;5283;48.876;8.962;2023-12-29T04:23:21;4.03;;;3.63;;
10471;SDS011;5283;48.876;8.962;2023-12-29T04:25:48;4.30;;;3.90;;
10471;SDS011;5283;48.876;8.962;2023-12-29T04:28:15;4.53;;;3.70;;
10471;SDS011;5283;48.876;8.962;2023-12-29T04:30:41;4.00;;;3.37;;
10471;SDS011;5283;48.876;8.962;2023-12-29T04:33:08;4.07;;;3.67;;
10471;SDS011;5283;48.876;8.962;2023-12-29T04:35:35;3.43;;;3.13;;
10471;SDS011;5283;48.876;8.962;2023-12-29T04:38:01;3.77;;;3.37;;
10471;SDS011;5283;48.876;8.962;2023-12-29T04:40:28;3.37;;;3.07;;
10471;SDS011;5283;48.876;8.962;2023-12-29T04:42:55;3.40;;;3.10;;
10471;SDS011;5283;48.876;8.962;2023-12-29T04:45:21;3.60;;;3.30;;
10471;SDS011;5283;48.876;8.962;2023-12-29T04:47:48;3.83;;;3.33;;
10471;SDS011;5283;48.876;8.962;2023-12-29T04:50:15;4.27;;;3.63;;
10471;SDS011;5283;48.876;8.962;2023-12-29T04:52:41;3.50;;;3.20;;
10471;SDS011;5283;48.876;8.962;2023-12-29T04:55:08;3.77;;;3.47;;
10471;SDS011;5283;48.876;8.962;2023-12-29T04:57:35;4.17;;;3.73;;
10471;SDS011;5283;48.876;8.962;2023-12-29T05:00:02;3.67;;;3.37;;
10471;SDS011;5283;48.876;8.962;2023-12-29T05:02:30;4.00;;;3.60;;
10471;SDS011;5283;48.876;8.962;2023-12-29T05:04:57;3.60;;;3.30;;
10471;SDS011;5283;48.876;8.962;2023-12-29T05:07:24;3.33;;;3.10;;
10471;SDS011;5283;48.876;8.962;2023-12-29T05:09:50;3.53;;;3.23;;
10471;SDS011;5283;48.876;8.962;2023-12-29T05:12:17;4.13;;;3.10;;
10471;SDS011;5283;48.876;8.962;2023-12-29T05:14:44;3.40;;;3.10;;
10471;SDS011;5283;48.876;8.962;2023-12-29T05:17:11;3.87;;;3.50;;
10471;SDS011;5283;48.876;8.962;2023-12-29T05:19:37;3.47;;;3.17;;
10471;SDS011;5283;48.876;8.962;2023-12-29T05:22:04;4.27;;;3.10;;
10471;SDS011;5283;48.876;8.962;2023-12-29T05:24:31;3.27;;;2.97;;
10471;SDS011;5283;48.876;8.962;2023-12-29T05:26:57;3.13;;;2.93;;
10471;SDS011;5283;48.876;8.962;2023-12-29T05:29:24;3.27;;;2.97;;
10471;SDS011;5283;48.876;8.962;2023-12-29T05:31:51;3.37;;;3.07;;
10471;SDS011;5283;48.876;8.962;2023-12-29T05:34:18;3.63;;;3.23;;
10471;SDS011;5283;48.876;8.962;2023-12-29T05:36:45;3.30;;;3.00;;
10471;SDS011;5283;48.876;8.962;2023-12-29T05:39:12;3.50;;;3.20;;
10471;SDS011;5283;48.876;8.962;2023-12-29T05:41:39;3.47;;;3.17;;
10471;SDS011;5283;48.876;8.962;2023-12-29T05:44:05;3.87;;;3.43;;
10471;SDS011;5283;48.876;8.962;2023-12-29T05:46:32;4.00;;;3.20;;
10471;SDS011;5283;48.876;8.962;2023-12-29T05:48:59;3.53;;;3.23;;
10471;SDS011;5283;48.876;8.962;2023-12-29T05:51:26;3.97;;;3.53;;
10471;SDS011;5283;48.876;8.962;2023-12-29T05:53:53;3.70;;;3.40;;
10471;SDS011;5283;48.876;8.962;2023-12-29T05:56:19;4.87;;;3.80;;
10471;SDS011;5283;48.876;8.962;2023-12-29T05:58:47;4.00;;;3.60;;
10471;SDS011;5283;48.876;8.962;2023-12-29T06:01:14;4.00;;;3.60;;
10471;SDS011;5283;48.876;8.962;2023-12-29T06:03:41;3.93;;;3.53;;
10471;SDS011;5283;48.876;8.962;2023-12-29T06:06:08;3.93;;;3.50;;
10471;SDS011;5283;48.876;8.962;2023-12-29T06:08:35;4.30;;;3.47;;
10471;SDS011;5283;48.876;8.962;2023-12-29T06:11:01;4.00;;;3.60;;
10471;SDS011;5283;48.876;8.962;2023-12-29T06:13:28;3.70;;;3.40;;
10471;SDS011;5283;48.876;8.962;2023-12-29T06:15:55;4.03;;;3.63;;
10471;SDS011;5283;48.876;8.962;2023-12-29T06:18:23;3.83;;;3.50;;
10471;SDS011;5283;48.876;8.962;2023-12-29T06:20:50;4.20;;;3.80;;
10471;SDS011;5283;48.876;8.962;2023-12-29T06:23:17;4.20;;;3.57;;
10471;SDS011;5283;48.876;8.962;2023-12-29T06:25:43;3.70;;;3.40;;
10471;SDS011;5283;48.876;8.962;2023-12-29T06:28:10;4.37;;;3.77;;
10471;SDS011;5283;48.876;8.962;2023-12-29T06:30:37;4.73;;;4.23;;
10471;SDS011;5283;48.876;8.962;2023-12-29T06:33:03;4.73;;;4.30;;
10471;SDS011;5283;48.876;8.962;2023-12-29T06:35:30;0.43;;;0.43;;
10471;SDS011;5283;48.876;8.962;2023-12-29T06:37:57;4.30;;;3.90;;
10471;SDS011;5283;48.876;8.962;2023-12-29T06:40:24;3.50;;;3.20;;
10471;SDS011;5283;48.876;8.962;2023-12-29T06:42:51;3.40;;;3.20;;
10471;SDS011;5283;48.876;8.962;2023-12-29T06:45:18;3.20;;;3.00;;
10471;SDS011;5283;48.876;8.962;2023-12-29T06:47:44;3.57;;;3.13;;
10471;SDS011;5283;48.876;8.962;2023-12-29T06:50:11;3.77;;;3.33;;
10471;SDS011;5283;48.876;8.962;2023-12-29T06:52:38;3.40;;;3.10;;
10471;SDS011;5283;48.876;8.962;2023-12-29T06:55:06;4.27;;;3.50;;
10471;SDS011;5283;48.876;8.962;2023-12-29T06:57:34;4.13;;;3.73;;
10471;SDS011;5283;48.876;8.962;2023-12-29T07:00:01;3.77;;;3.47;;
10471;SDS011;5283;48.876;8.962;2023-12-29T07:02:28;3.63;;;3.33;;
10471;SDS011;5283;48.876;8.962;2023-12-29T07:04:54;3.67;;;3.37;;
10471;SDS011;5283;48.876;8.962;2023-12-29T07:07:21;4.03;;;3.63;;
10471;SDS011;5283;48.876;8.962;2023-12-29T07:09:48;3.70;;;3.40;;
10471;SDS011;5283;48.876;8.962;2023-12-29T07:12:14;3.60;;;3.30;;
10471;SDS011;5283;48.876;8.962;2023-12-29T07:14:41;3.40;;;3.10;;
10471;SDS011;5283;48.876;8.962;2023-12-29T07:17:08;3.67;;;3.30;;
10471;SDS011;5283;48.876;8.962;2023-12-29T07:19:35;3.17;;;2.90;;
10471;SDS011;5283;48.876;8.962;2023-12-29T07:22:05;2.97;;;2.77;;
10471;SDS011;5283;48.876;8.962;2023-12-29T07:24:35;2.67;;;2.47;;
10471;SDS011;5283;48.876;8.962;2023-12-29T07:27:02;3.07;;;2.87;;
10471;SDS011;5283;48.876;8.962;2023-12-29T07:29:29;3.20;;;2.90;;
10471;SDS011;5283;48.876;8.962;2023-12-29T07:31:56;2.80;;;2.60;;
10471;SDS011;5283;48.876;8.962;2023-12-29T07:34:23;3.13;;;2.83;;
10471;SDS011;5283;48.876;8.962;2023-12-29T07:36:50;3.33;;;3.03;;
10471;SDS011;5283;48.876;8.962;2023-12-29T07:39:17;3.57;;;2.80;;
10471;SDS011;5283;48.876;8.962;2023-12-29T07:41:44;2.60;;;2.50;;
10471;SDS011;5283;48.876;8.962;2023-12-29T07:44:11;2.60;;;2.40;;
10471;SDS011;5283;48.876;8.962;2023-12-29T07:46:40;2.27;;;2.17;;
10471;SDS011;5283;48.876;8.962;2023-12-29T07:49:07;2.50;;;2.30;;
10471;SDS011;5283;48.876;8.962;2023-12-29T07:51:34;3.57;;;2.40;;
10471;SDS011;5283;48.876;8.962;2023-12-29T07:54:04;2.20;;;2.07;;
10471;SDS011;5283;48.876;8.962;2023-12-29T07:56:31;2.43;;;2.07;;
10471;SDS011;5283;48.876;8.962;2023-12-29T07:58:58;1.80;;;1.70;;
10471;SDS011;5283;48.876;8.962;2023-12-29T08:01:24;2.10;;;2.00;;
10471;SDS011;5283;48.876;8.962;2023-12-29T08:03:52;2.10;;;1.83;;
10471;SDS011;5283;48.876;8.962;2023-12-29T08:06:19;2.20;;;1.70;;
10471;SDS011;5283;48.876;8.962;2023-12-29T08:08:45;1.90;;;1.80;;
10471;SDS011;5283;48.876;8.962;2023-12-29T08:11:15;1.73;;;1.63;;
10471;SDS011;5283;48.876;8.962;2023-12-29T08:13:43;2.10;;;2.00;;
10471;SDS011;5283;48.876;8.962;2023-12-29T08:16:11;2.00;;;1.90;;
10471;SDS011;5283;48.876;8.962;2023-12-29T08:18:37;1.60;;;1.50;;
10471;SDS011;5283;48.876;8.962;2023-12-29T08:21:04;1.57;;;1.47;;
10471;SDS011;5283;48.876;8.962;2023-12-29T08:23:31;1.60;;;1.50;;
10471;SDS011;5283;48.876;8.962;2023-12-29T08:25:58;2.07;;;1.87;;
10471;SDS011;5283;48.876;8.962;2023-12-29T08:28:24;2.30;;;1.60;;
10471;SDS011;5283;48.876;8.962;2023-12-29T08:30:51;1.87;;;1.73;;
10471;SDS011;5283;48.876;8.962;2023-12-29T08:33:18;1.57;;;1.47;;
10471;SDS011;5283;48.876;8.962;2023-12-29T08:35:45;2.33;;;1.80;;
10471;SDS011;5283;48.876;8.962;2023-12-29T08:38:12;2.67;;;2.00;;
10471;SDS011;5283;48.876;8.962;2023-12-29T08:40:39;1.90;;;1.80;;
10471;SDS011;5283;48.876;8.962;2023-12-29T08:43:07;1.80;;;1.70;;
10471;SDS011;5283;48.876;8.962;2023-12-29T08:45:34;2.20;;;1.80;;
10471;SDS011;5283;48.876;8.962;2023-12-29T08:48:01;3.60;;;1.83;;
10471;SDS011;5283;48.876;8.962;2023-12-29T08:50:30;1.60;;;1.50;;
10471;SDS011;5283;48.876;8.962;2023-12-29T08:52:56;2.20;;;2.00;;
10471;SDS011;5283;48.876;8.962;2023-12-29T08:55:23;1.97;;;1.70;;
10471;SDS011;5283;48.876;8.962;2023-12-29T08:57:50;1.73;;;1.63;;
10471;SDS011;5283;48.876;8.962;2023-12-29T09:00:16;1.63;;;1.53;;
10471;SDS011;5283;48.876;8.962;2023-12-29T09:02:43;2.33;;;1.60;;
10471;SDS011;5283;48.876;8.962;2023-12-29T09:05:10;2.10;;;2.00;;
10471;SDS011;5283;48.876;8.962;2023-12-29T09:07:37;2.10;;;1.90;;
10471;SDS011;5283;48.876;8.962;2023-12-29T09:10:04;1.97;;;1.87;;
10471;SDS011;5283;48.876;8.962;2023-12-29T09:12:34;2.03;;;1.80;;
10471;SDS011;5283;48.876;8.962;2023-12-29T09:15:01;2.33;;;2.13;;
10471;SDS011;5283;48.876;8.962;2023-12-29T09:17:28;2.37;;;2.17;;
10471;SDS011;5283;48.876;8.962;2023-12-29T09:19:55;1.77;;;1.67;;
10471;SDS011;5283;48.876;8.962;2023-12-29T09:22:22;1.70;;;1.60;;
10471;SDS011;5283;48.876;8.962;2023-12-29T09:24:49;1.80;;;1.63;;
10471;SDS011;5283;48.876;8.962;2023-12-29T09:27:15;1.60;;;1.50;;
10471;SDS011;5283;48.876;8.962;2023-12-29T09:29:43;1.73;;;1.63;;
10471;SDS011;5283;48.876;8.962;2023-12-29T09:32:10;2.07;;;1.90;;
10471;SDS011;5283;48.876;8.962;2023-12-29T09:34:36;2.20;;;1.67;;
10471;SDS011;5283;48.876;8.962;2023-12-29T09:37:03;2.00;;;1.90;;
10471;SDS011;5283;48.876;8.962;2023-12-29T09:39:30;1.70;;;1.60;;
10471;SDS011;5283;48.876;8.962;2023-12-29T09:41:59;1.77;;;1.53;;
10471;SDS011;5283;48.876;8.962;2023-12-29T09:44:27;2.07;;;1.97;;
10471;SDS011;5283;48.876;8.962;2023-12-29T09:47:02;1.53;;;1.43;;
10471;SDS011;5283;48.876;8.962;2023-12-29T09:49:30;1.70;;;1.60;;
10471;SDS011;5283;48.876;8.962;2023-12-29T09:52:03;1.87;;;1.77;;
10471;SDS011;5283;48.876;8.962;2023-12-29T09:54:31;1.97;;;1.87;;
10471;SDS011;5283;48.876;8.962;2023-12-29T09:56:58;1.80;;;1.70;;
10471;SDS011;5283;48.876;8.962;2023-12-29T09:59:26;1.70;;;1.60;;
10471;SDS011;5283;48.876;8.962;2023-12-29T10:01:53;2.77;;;2.27;;
10471;SDS011;5283;48.876;8.962;2023-12-29T10:04:22;1.90;;;1.80;;
10471;SDS011;5283;48.876;8.962;2023-12-29T10:06:48;2.10;;;1.90;;
10471;SDS011;5283;48.876;8.962;2023-12-29T10:09:17;2.50;;;2.10;;
10471;SDS011;5283;48.876;8.962;2023-12-29T10:11:47;2.00;;;1.90;;
10471;SDS011;5283;48.876;8.962;2023-12-29T10:14:31;2.03;;;1.93;;
10471;SDS011;5283;48.876;8.962;2023-12-29T10:17:17;1.60;;;1.50;;
10471;SDS011;5283;48.876;8.962;2023-12-29T10:19:58;2.40;;;2.20;;
10471;SDS011;5283;48.876;8.962;2023-12-29T10:22:51;3.10;;;1.90;;
10471;SDS011;5283;48.876;8.962;2023-12-29T10:25:30;2.27;;;1.70;;
10471;SDS011;5283;48.876;8.962;2023-12-29T10:27:57;1.63;;;1.53;;
10471;SDS011;5283;48.876;8.962;2023-12-29T10:30:24;2.57;;;1.87;;
10471;SDS011;5283;48.876;8.962;2023-12-29T10:32:53;3.50;;;2.20;;
10471;SDS011;5283;48.876;8.962;2023-12-29T10:35:20;3.00;;;2.00;;
10471;SDS011;5283;48.876;8.962;2023-12-29T10:37:49;2.17;;;2.07;;
10471;SDS011;5283;48.876;8.962;2023-12-29T10:40:19;4.17;;;3.87;;
10471;SDS011;5283;48.876;8.962;2023-12-29T10:42:53;3.50;;;3.20;;
10471;SDS011;5283;48.876;8.962;2023-12-29T10:45:21;1.90;;;1.70;;
10471;SDS011;5283;48.876;8.962;2023-12-29T10:47:51;2.10;;;1.60;;
10471;SDS011;5283;48.876;8.962;2023-12-29T10:50:17;1.70;;;1.60;;
10471;SDS011;5283;48.876;8.962;2023-12-29T10:52:44;1.30;;;1.20;;
10471;SDS011;5283;48.876;8.962;2023-12-29T10:55:12;1.17;;;1.17;;
10471;SDS011;5283;48.876;8.962;2023-12-29T10:57:39;0.90;;;0.90;;
10471;SDS011;5283;48.876;8.962;2023-12-29T11:00:07;1.30;;;1.20;;
10471;SDS011;5283;48.876;8.962;2023-12-29T11:02:34;0.90;;;0.90;;
10471;SDS011;5283;48.876;8.962;2023-12-29T11:05:02;1.00;;;1.00;;
10471;SDS011;5283;48.876;8.962;2023-12-29T11:10:04;1.13;;;1.00;;
10471;SDS011;5283;48.876;8.962;2023-12-29T11:12:33;0.60;;;0.60;;
10471;SDS011;5283;48.876;8.962;2023-12-29T11:15:01;0.70;;;0.70;;
10471;SDS011;5283;48.876;8.962;2023-12-29T11:17:30;0.70;;;0.60;;
10471;SDS011;5283;48.876;8.962;2023-12-29T11:19:59;1.80;;;0.77;;
10471;SDS011;5283;48.876;8.962;2023-12-29T11:22:27;1.73;;;0.43;;
10471;SDS011;5283;48.876;8.962;2023-12-29T11:24:56;0.63;;;0.63;;
10471;SDS011;5283;48.876;8.962;2023-12-29T11:27:27;0.77;;;0.50;;
10471;SDS011;5283;48.876;8.962;2023-12-29T11:29:59;1.27;;;0.80;;
10471;SDS011;5283;48.876;8.962;2023-12-29T11:35:12;0.60;;;0.60;;
10471;SDS011;5283;48.876;8.962;2023-12-29T11:37:49;0.67;;;0.67;;
10471;SDS011;5283;48.876;8.962;2023-12-29T11:40:41;0.43;;;0.43;;
10471;SDS011;5283;48.876;8.962;2023-12-29T11:43:17;0.60;;;0.50;;
10471;SDS011;5283;48.876;8.962;2023-12-29T11:45:44;0.40;;;0.40;;
10471;SDS011;5283;48.876;8.962;2023-12-29T11:48:11;0.70;;;0.70;;
10471;SDS011;5283;48.876;8.962;2023-12-29T11:50:39;0.43;;;0.40;;
10471;SDS011;5283;48.876;8.962;2023-12-29T11:53:07;1.07;;;0.57;;
10471;SDS011;5283;48.876;8.962;2023-12-29T11:55:37;0.83;;;0.40;;
10471;SDS011;5283;48.876;8.962;2023-12-29T11:58:24;0.57;;;0.57;;
10471;SDS011;5283;48.876;8.962;2023-12-29T12:00:55;0.40;;;0.40;;
10471;SDS011;5283;48.876;8.962;2023-12-29T12:03:25;0.50;;;0.50;;
10471;SDS011;5283;48.876;8.962;2023-12-29T12:05:55;0.50;;;0.50;;
10471;SDS011;5283;48.876;8.962;2023-12-29T12:08:30;0.50;;;0.50;;
10471;SDS011;5283;48.876;8.962;2023-12-29T12:11:41;0.40;;;0.40;;
10471;SDS011;5283;48.876;8.962;2023-12-29T12:14:05;0.50;;;0.50;;
10471;SDS011;5283;48.876;8.962;2023-12-29T12:19:14;0.53;;;0.53;;
10471;SDS011;5283;48.876;8.962;2023-12-29T12:21:44;1.10;;;0.60;;
10471;SDS011;5283;48.876;8.962;2023-12-29T12:24:13;0.00;;;0.00;;
10471;SDS011;5283;48.876;8.962;2023-12-29T12:26:40;0.67;;;0.67;;
10471;SDS011;5283;48.876;8.962;2023-12-29T12:29:07;0.53;;;0.53;;
10471;SDS011;5283;48.876;8.962;2023-12-29T12:31:35;0.77;;;0.47;;
10471;SDS011;5283;48.876;8.962;2023-12-29T12:34:01;0.73;;;0.60;;
10471;SDS011;5283;48.876;8.962;2023-12-29T12:36:28;0.70;;;0.70;;
10471;SDS011;5283;48.876;8.962;2023-12-29T12:38:56;0.50;;;0.50;;
10471;SDS011;5283;48.876;8.962;2023-12-29T12:41:24;0.60;;;0.60;;
10471;SDS011;5283;48.876;8.962;2023-12-29T12:46:36;0.43;;;0.43;;
10471;SDS011;5283;48.876;8.962;2023-12-29T12:49:15;0.60;;;0.60;;
10471;SDS011;5283;48.876;8.962;2023-12-29T12:51:43;0.50;;;0.50;;
10471;SDS011;5283;48.876;8.962;2023-12-29T12:54:10;0.50;;;0.50;;
10471;SDS011;5283;48.876;8.962;2023-12-29T12:56:42;0.60;;;0.60;;
10471;SDS011;5283;48.876;8.962;2023-12-29T12:59:09;0.80;;;0.67;;
10471;SDS011;5283;48.876;8.962;2023-12-29T13:01:37;0.80;;;0.57;;
10471;SDS011;5283;48.876;8.962;2023-12-29T13:04:04;1.10;;;0.67;;
10471;SDS011;5283;48.876;8.962;2023-12-29T13:06:32;0.50;;;0.50;;
10471;SDS011;5283;48.876;8.962;2023-12-29T13:09:00;0.70;;;0.53;;
10471;SDS011;5283;48.876;8.962;2023-12-29T13:11:33;0.57;;;0.57;;
10471;SDS011;5283;48.876;8.962;2023-12-29T13:13:59;0.67;;;0.67;;
10471;SDS011;5283;48.876;8.962;2023-12-29T13:16:31;0.70;;;0.70;;
10471;SDS011;5283;48.876;8.962;2023-12-29T13:19:15;0.70;;;0.70;;
10471;SDS011;5283;48.876;8.962;2023-12-29T13:21:52;0.93;;;0.93;;
10471;SDS011;5283;48.876;8.962;2023-12-29T13:24:21;0.57;;;0.57;;
10471;SDS011;5283;48.876;8.962;2023-12-29T13:26:50;1.37;;;0.70;;
10471;SDS011;5283;48.876;8.962;2023-12-29T13:29:21;0.70;;;0.70;;
10471;SDS011;5283;48.876;8.962;2023-12-29T13:31:52;1.33;;;0.90;;
10471;SDS011;5283;48.876;8.962;2023-12-29T13:34:21;1.00;;;1.00;;
10471;SDS011;5283;48.876;8.962;2023-12-29T13:37:03;0.97;;;0.67;;
10471;SDS011;5283;48.876;8.962;2023-12-29T13:42:24;0.67;;;0.67;;
10471;SDS011;5283;48.876;8.962;2023-12-29T13:44:55;0.67;;;0.67;;
10471;SDS011;5283;48.876;8.962;2023-12-29T13:47:25;0.67;;;0.67;;
10471;SDS011;5283;48.876;8.962;2023-12-29T13:49:52;0.60;;;0.60;;
10471;SDS011;5283;48.876;8.962;2023-12-29T13:52:19;0.60;;;0.60;;
10471;SDS011;5283;48.876;8.962;2023-12-29T13:54:47;0.90;;;0.90;;
10471;SDS011;5283;48.876;8.962;2023-12-29T13:57:15;1.10;;;1.00;;
10471;SDS011;5283;48.876;8.962;2023-12-29T13:59:43;0.60;;;0.60;;
10471;SDS011;5283;48.876;8.962;2023-12-29T14:02:20;0.93;;;0.83;;
10471;SDS011;5283;48.876;8.962;2023-12-29T14:07:53;0.90;;;0.90;;
10471;SDS011;5283;48.876;8.962;2023-12-29T14:10:29;1.03;;;0.90;;
10471;SDS011;5283;48.876;8.962;2023-12-29T14:13:03;0.70;;;0.70;;
10471;SDS011;5283;48.876;8.962;2023-12-29T14:15:35;2.70;;;2.50;;
10471;SDS011;5283;48.876;8.962;2023-12-29T14:18:05;1.93;;;1.83;;
10471;SDS011;5283;48.876;8.962;2023-12-29T14:20:36;3.87;;;2.97;;
10471;SDS011;5283;48.876;8.962;2023-12-29T14:23:03;0.80;;;0.80;;
10471;SDS011;5283;48.876;8.962;2023-12-29T14:25:31;1.13;;;0.90;;
10471;SDS011;5283;48.876;8.962;2023-12-29T14:28:03;0.60;;;0.60;;
10471;SDS011;5283;48.876;8.962;2023-12-29T14:30:40;0.93;;;0.93;;
10471;SDS011;5283;48.876;8.962;2023-12-29T14:33:06;1.00;;;0.80;;
10471;SDS011;5283;48.876;8.962;2023-12-29T14:35:34;1.10;;;1.00;;
10471;SDS011;5283;48.876;8.962;2023-12-29T14:38:01;1.00;;;1.00;;
10471;SDS011;5283;48.876;8.962;2023-12-29T14:40:28;0.90;;;0.90;;
10471;SDS011;5283;48.876;8.962;2023-12-29T14:42:55;1.80;;;1.20;;
10471;SDS011;5283;48.876;8.962;2023-12-29T14:45:22;0.93;;;0.93;;
10471;SDS011;5283;48.876;8.962;2023-12-29T14:47:48;0.83;;;0.80;;
10471;SDS011;5283;48.876;8.962;2023-12-29T14:50:15;1.30;;;0.90;;
10471;SDS011;5283;48.876;8.962;2023-12-29T14:52:42;0.80;;;0.70;;
10471;SDS011;5283;48.876;8.962;2023-12-29T14:55:09;0.90;;;0.90;;
10471;SDS011;5283;48.876;8.962;2023-12-29T14:57:35;0.80;;;0.80;;
10471;SDS011;5283;48.876;8.962;2023-12-29T15:00:02;1.10;;;0.90;;
10471;SDS011;5283;48.876;8.962;2023-12-29T15:02:30;0.93;;;0.90;;
10471;SDS011;5283;48.876;8.962;2023-12-29T15:04:57;0.80;;;0.80;;
10471;SDS011;5283;48.876;8.962;2023-12-29T15:07:24;1.43;;;1.13;;
10471;SDS011;5283;48.876;8.962;2023-12-29T15:09:55;0.90;;;0.90;;
10471;SDS011;5283;48.876;8.962;2023-12-29T15:12:22;1.37;;;1.27;;
10471;SDS011;5283;48.876;8.962;2023-12-29T15:14:49;0.80;;;0.80;;
10471;SDS011;5283;48.876;8.962;2023-12-29T15:17:16;0.60;;;0.60;;
10471;SDS011;5283;48.876;8.962;2023-12-29T15:19:42;0.90;;;0.90;;
10471;SDS011;5283;48.876;8.962;2023-12-29T15:22:09;0.63;;;0.63;;